Hlavní strana
METAR-TAF:

METAR-TAF

Letiště :

Tébessa, Alžírsko

zeměpisná šířka: 35-29N, zeměpisná délka: 008-08E, výška: 813 m

Aktuální stav počasí

Zpráva byla vytvořena před 1 hodinou a 6 minutami, v 18:00 UTC
Severoseverovýchodní vítr 10 kt
Teplota 17°C
Vlhkost vzduchu 25%
Tlak 1021 hPa
Viditelnost 10 km a více
Skoro jasno ve výšce 3000 ft
Polojasno ve výšce 20000 ft

METAR: DABS 131800Z 03010KT 9999 FEW030 SCT200 17/M03 Q1021

Čas: 20:06 (19:06 UTC)

Předpověď počasí

Zpráva byla vytvořena před 2 hodinami a 6 minutami, v 17:00 UTC
Předpověď platná od 13 v 18 UTC do 14 v 18 UTC
Severoseverozápadní vítr 9 kt
Viditelnost 10 km a více
Skoro jasno ve výšce 2600 ft
Polojasno ve výšce 3300 ft
Pravděpodobnost 30%
od 13 v 18 UTC do 13 v 22 UTC
Skoro jasno ve výšce 2600 ft, Vertikální cumulus.

TAF: DABS 131700Z 1318/1418 33009KT 9999 FEW026 SCT033 PROB30 1318/1322 FEW026TCU

Stav a předpovědi počasí z více než 4 000 letišť (zprávy METAR a TAF).

Červené a žluté tečky na mapě představují dostupné meteorologické stanice.

Když kurzor umístíte na tečku, zobrazí se název stanice.

Pak kliknutím zobrazíte stav a předpověď počasí.

Chcete-li změnit mapu, kliknutím na zelené tlačítko se znaménkem +mapu přiblížíte, kliknutím na zelené tlačítko se znaménkem – mapu oddálíte a kliknutím na zelené šipky přejdete na sousední mapy.


METAR-TAF: